createdAt,value
2018-07-03T00:01:07.247Z,13.85
2018-07-03T00:03:36.729Z,13.85
2018-07-03T00:06:06.329Z,13.96
2018-07-03T00:08:35.789Z,13.85
2018-07-03T00:11:05.260Z,13.86
2018-07-03T00:13:35.596Z,13.88
2018-07-03T00:16:05.277Z,13.91
2018-07-03T00:18:34.759Z,13.82
2018-07-03T00:21:04.295Z,13.71
2018-07-03T00:23:33.758Z,13.49
2018-07-03T00:26:03.969Z,13.31
2018-07-03T00:28:33.462Z,13.22
2018-07-03T00:31:03.005Z,13.33
2018-07-03T00:33:32.180Z,13.29
2018-07-03T00:36:01.626Z,13.39
2018-07-03T00:38:31.217Z,13.40
2018-07-03T00:41:00.393Z,13.41
2018-07-03T00:43:29.946Z,13.44
2018-07-03T00:45:59.454Z,13.52
2018-07-03T00:48:28.907Z,13.46
2018-07-03T00:50:58.514Z,13.45
2018-07-03T00:53:27.968Z,13.43
2018-07-03T00:55:57.489Z,13.31
2018-07-03T00:58:27.383Z,13.22
2018-07-03T01:00:56.878Z,13.20
2018-07-03T01:03:26.018Z,13.05
2018-07-03T01:05:55.486Z,13.01
2018-07-03T01:08:25.007Z,12.99
2018-07-03T01:10:54.445Z,12.97
2018-07-03T01:13:23.867Z,12.93
2018-07-03T01:15:53.414Z,12.88
2018-07-03T01:18:22.887Z,12.94
2018-07-03T01:20:52.354Z,12.97
2018-07-03T01:23:21.851Z,13.03
2018-07-03T01:25:51.473Z,13.01
2018-07-03T01:28:20.945Z,13.01
2018-07-03T01:30:50.405Z,13.02
2018-07-03T01:33:19.882Z,13.04
2018-07-03T01:35:49.453Z,12.99
2018-07-03T01:38:18.677Z,12.89
2018-07-03T01:40:48.242Z,12.77
2018-07-03T01:43:17.832Z,12.79
2018-07-03T01:45:47.329Z,12.83
2018-07-03T01:48:16.756Z,12.76
2018-07-03T01:50:46.195Z,12.68
2018-07-03T01:53:15.693Z,12.68
2018-07-03T01:55:44.904Z,12.61
2018-07-03T01:58:14.428Z,12.58
2018-07-03T02:00:44.274Z,12.50
2018-07-03T02:03:13.729Z,12.43
2018-07-03T02:05:43.250Z,12.34
2018-07-03T02:08:12.752Z,12.25
2018-07-03T02:10:42.196Z,12.29
2018-07-03T02:13:11.670Z,12.33
2018-07-03T02:15:41.165Z,12.45
2018-07-03T02:18:10.849Z,12.35
2018-07-03T02:20:40.416Z,12.17
2018-07-03T02:23:09.942Z,12.20
2018-07-03T02:25:39.381Z,12.13
2018-07-03T02:28:08.584Z,12.12
2018-07-03T02:30:38.090Z,12.15
2018-07-03T02:33:07.571Z,12.14
2018-07-03T02:35:37.189Z,12.11
2018-07-03T02:38:06.360Z,12.14
2018-07-03T02:40:35.858Z,12.22
2018-07-03T02:49:53.226Z,11.88
2018-07-03T02:52:22.730Z,11.89
2018-07-03T02:54:52.261Z,11.92
2018-07-03T02:57:21.730Z,11.95
2018-07-03T02:59:51.179Z,11.94
2018-07-03T03:02:20.719Z,11.87
2018-07-03T03:04:50.197Z,11.72
2018-07-03T03:07:19.741Z,11.76
2018-07-03T03:09:49.301Z,11.75
2018-07-03T03:12:18.858Z,11.73
2018-07-03T03:14:48.657Z,11.53
2018-07-03T03:17:18.178Z,11.53
2018-07-03T03:19:47.652Z,11.54
2018-07-03T03:22:17.152Z,11.60
2018-07-03T03:24:46.643Z,11.65
2018-07-03T03:27:16.105Z,11.73
2018-07-03T03:29:45.588Z,11.75
2018-07-03T03:32:15.058Z,11.77
2018-07-03T03:34:44.649Z,11.73
2018-07-03T03:37:14.116Z,11.70
2018-07-03T03:39:43.542Z,11.72
2018-07-03T03:42:13.127Z,11.77
2018-07-03T03:44:42.631Z,11.76
2018-07-03T03:47:12.179Z,11.81
2018-07-03T03:49:41.639Z,11.81
2018-07-03T03:52:11.261Z,11.85
2018-07-03T03:54:40.755Z,11.92
2018-07-03T03:57:10.296Z,12.02
2018-07-03T03:59:39.846Z,12.15
2018-07-03T04:02:09.259Z,12.26
2018-07-03T04:04:38.730Z,12.37
2018-07-03T04:07:08.647Z,12.49
2018-07-03T04:09:38.109Z,12.51
2018-07-03T04:12:08.234Z,12.65
2018-07-03T04:14:37.863Z,12.74
2018-07-03T04:17:07.408Z,12.82
2018-07-03T04:19:36.993Z,12.89
2018-07-03T04:22:06.525Z,13.04
2018-07-03T04:24:35.979Z,13.39
2018-07-03T04:27:05.605Z,13.79
2018-07-03T04:29:35.514Z,13.92
2018-07-03T04:32:05.170Z,14.16
2018-07-03T04:34:34.730Z,14.26
2018-07-03T04:37:04.562Z,14.29
2018-07-03T04:39:34.107Z,14.33
2018-07-03T04:42:03.722Z,14.40
2018-07-03T04:44:33.215Z,14.49
2018-07-03T04:47:02.712Z,14.57
2018-07-03T04:49:32.809Z,14.58
2018-07-03T04:52:02.670Z,14.57
2018-07-03T04:54:32.521Z,14.58
2018-07-03T04:57:02.596Z,14.63
2018-07-03T04:59:32.232Z,14.70
2018-07-03T05:02:02.314Z,14.75
2018-07-03T05:04:31.781Z,14.77
2018-07-03T05:07:01.261Z,14.75
2018-07-03T05:09:30.847Z,14.80
2018-07-03T05:12:00.091Z,14.73
2018-07-03T05:14:29.522Z,14.84
2018-07-03T05:16:59.765Z,14.85
2018-07-03T05:19:30.789Z,14.90
2018-07-03T05:22:00.371Z,14.92
2018-07-03T05:24:29.793Z,15.00
2018-07-03T05:26:59.188Z,15.04
2018-07-03T05:29:28.731Z,15.16
2018-07-03T05:31:58.112Z,15.19
2018-07-03T05:34:27.589Z,15.37
2018-07-03T05:36:57.285Z,15.39
2018-07-03T05:39:26.815Z,15.45
2018-07-03T05:41:56.442Z,15.51
2018-07-03T05:44:25.986Z,15.53
2018-07-03T05:46:55.416Z,15.67
2018-07-03T05:49:25.190Z,15.71
2018-07-03T05:51:54.636Z,15.86
2018-07-03T05:54:24.394Z,15.87
2018-07-03T05:56:53.985Z,15.97
2018-07-03T05:59:24.026Z,16.00
2018-07-03T06:01:53.677Z,16.12
2018-07-03T06:04:23.300Z,16.20
2018-07-03T06:06:52.841Z,16.22
2018-07-03T06:09:23.169Z,16.27
2018-07-03T06:11:52.655Z,16.26
2018-07-03T06:14:22.374Z,16.46
2018-07-03T06:16:55.294Z,16.60
2018-07-03T06:19:27.408Z,16.62
2018-07-03T06:21:57.272Z,16.61
2018-07-03T06:24:26.773Z,16.69
2018-07-03T06:26:56.265Z,16.80
2018-07-03T06:29:25.778Z,16.86
2018-07-03T06:31:55.400Z,16.94
2018-07-03T06:34:24.845Z,16.99
2018-07-03T06:36:54.309Z,17.03
2018-07-03T06:39:23.791Z,17.11
2018-07-03T06:41:53.284Z,17.28
2018-07-03T06:44:22.899Z,17.31
2018-07-03T06:46:52.381Z,17.38
2018-07-03T06:49:21.827Z,17.45
2018-07-03T06:51:51.447Z,17.55
2018-07-03T06:54:20.996Z,17.57
2018-07-03T06:56:50.493Z,17.65
2018-07-03T06:59:20.045Z,17.71
2018-07-03T07:01:49.563Z,17.79
2018-07-03T07:04:19.048Z,17.85
2018-07-03T07:06:48.573Z,18.05
2018-07-03T07:09:18.050Z,18.02
2018-07-03T07:11:47.711Z,18.28
2018-07-03T07:14:17.142Z,18.42
2018-07-03T07:16:46.608Z,18.51
2018-07-03T07:19:16.156Z,18.59
2018-07-03T07:21:45.578Z,18.75
2018-07-03T07:24:15.633Z,18.69
2018-07-03T07:26:45.053Z,18.90
2018-07-03T07:29:14.584Z,18.87
2018-07-03T07:31:44.173Z,18.95
2018-07-03T07:36:43.229Z,18.87
2018-07-03T07:39:13.531Z,18.81
2018-07-03T07:41:42.881Z,19.12
2018-07-03T07:44:12.383Z,19.10
2018-07-03T07:46:41.892Z,19.27
2018-07-03T07:49:12.278Z,19.37
2018-07-03T07:51:41.749Z,19.51
2018-07-03T07:54:11.254Z,19.66
2018-07-03T07:56:41.017Z,19.59
2018-07-03T07:59:10.545Z,19.76
2018-07-03T08:01:40.388Z,19.76
2018-07-03T08:04:09.882Z,19.76
2018-07-03T08:06:39.461Z,19.85
2018-07-03T08:09:10.679Z,20.10
2018-07-03T08:11:39.844Z,19.99
2018-07-03T08:14:09.318Z,19.95
2018-07-03T08:16:38.956Z,19.98
2018-07-03T08:19:08.532Z,20.08
2018-07-03T08:21:37.949Z,20.25
2018-07-03T08:24:07.465Z,20.30
2018-07-03T08:26:37.047Z,20.33
2018-07-03T08:29:06.569Z,20.36
2018-07-03T08:31:36.189Z,20.49
2018-07-03T08:34:06.567Z,20.56
2018-07-03T08:36:36.224Z,20.70
2018-07-03T08:39:08.658Z,20.99
2018-07-03T08:41:37.818Z,20.87
2018-07-03T08:44:07.310Z,20.94
2018-07-03T08:46:37.651Z,21.11
2018-07-03T08:49:07.982Z,21.22
2018-07-03T08:51:37.921Z,21.31
2018-07-03T08:54:07.217Z,21.30
2018-07-03T08:56:36.508Z,21.27
2018-07-03T08:59:06.833Z,21.46
2018-07-03T09:01:36.273Z,21.63
2018-07-03T09:04:05.796Z,21.76
2018-07-03T09:06:35.241Z,21.69
2018-07-03T09:09:07.992Z,21.67
2018-07-03T09:11:37.753Z,21.69
2018-07-03T09:14:07.686Z,21.67
2018-07-03T09:16:37.635Z,21.85
2018-07-03T09:19:07.172Z,21.90
2018-07-03T09:21:36.648Z,21.93
2018-07-03T09:24:06.265Z,22.16
2018-07-03T09:26:35.731Z,22.24
2018-07-03T09:29:05.266Z,22.28
2018-07-03T09:31:34.753Z,22.33
2018-07-03T09:34:04.789Z,22.59
2018-07-03T09:36:34.386Z,22.60
2018-07-03T09:39:04.227Z,22.63
2018-07-03T09:41:33.755Z,22.40
2018-07-03T09:44:03.419Z,22.38
2018-07-03T09:46:32.983Z,22.63
2018-07-03T09:49:02.593Z,22.90
2018-07-03T09:51:32.050Z,22.85
2018-07-03T09:54:01.480Z,23.17
2018-07-03T09:56:32.041Z,23.21
2018-07-03T09:59:01.803Z,23.02
2018-07-03T10:01:31.651Z,22.92
2018-07-03T10:04:01.819Z,22.92
2018-07-03T10:06:31.472Z,22.97
2018-07-03T10:09:01.793Z,23.09
2018-07-03T10:11:31.307Z,23.40
2018-07-03T10:14:00.793Z,23.18
2018-07-03T10:16:30.477Z,23.21
2018-07-03T10:19:04.389Z,22.92
2018-07-03T10:21:34.153Z,22.82
2018-07-03T10:24:03.747Z,22.86
2018-07-03T10:26:33.327Z,22.43
2018-07-03T10:29:04.180Z,22.23
2018-07-03T10:31:33.698Z,22.06
2018-07-03T10:34:03.318Z,21.93
2018-07-03T10:36:32.987Z,21.84
2018-07-03T10:39:02.549Z,21.89
2018-07-03T10:41:32.459Z,21.96
2018-07-03T10:44:02.057Z,22.10
2018-07-03T10:46:31.642Z,22.18
2018-07-03T10:49:01.061Z,22.35
2018-07-03T10:51:31.448Z,22.39
2018-07-03T10:54:00.968Z,22.57
2018-07-03T10:56:30.500Z,22.71
2018-07-03T10:59:00.089Z,22.66
2018-07-03T11:01:29.520Z,22.65
2018-07-03T11:03:58.964Z,22.91
2018-07-03T11:06:28.338Z,23.04
2018-07-03T11:08:57.842Z,23.43
2018-07-03T11:11:28.161Z,23.43
2018-07-03T11:13:58.368Z,23.64
2018-07-03T11:16:27.860Z,23.57
2018-07-03T11:18:57.515Z,23.57
2018-07-03T11:21:27.582Z,23.60
2018-07-03T11:23:57.154Z,23.51
2018-07-03T11:26:27.360Z,23.40
2018-07-03T11:28:57.285Z,23.61
2018-07-03T11:31:26.781Z,23.84
2018-07-03T11:33:58.961Z,23.71
2018-07-03T11:36:28.474Z,23.62
2018-07-03T11:38:58.161Z,23.47
2018-07-03T11:41:27.643Z,23.37
2018-07-03T11:43:57.129Z,23.50
2018-07-03T11:46:26.987Z,23.51
2018-07-03T11:48:57.769Z,23.39
2018-07-03T11:51:27.700Z,23.37
2018-07-03T11:53:57.618Z,23.33
2018-07-03T11:56:27.289Z,23.03
2018-07-03T11:59:00.404Z,23.27
2018-07-03T12:01:30.311Z,23.50
2018-07-03T12:03:59.740Z,23.26
2018-07-03T12:06:30.152Z,23.01
2018-07-03T12:09:01.254Z,23.05
2018-07-03T12:11:30.739Z,23.20
2018-07-03T12:14:00.338Z,23.32
2018-07-03T12:16:30.890Z,23.35
2018-07-03T12:19:01.136Z,23.84
2018-07-03T12:21:30.912Z,24.09
2018-07-03T12:24:00.516Z,24.33
2018-07-03T12:26:30.098Z,24.66
2018-07-03T12:28:59.751Z,25.80
2018-07-03T12:31:29.865Z,26.67
2018-07-03T12:34:01.091Z,27.80
2018-07-03T12:36:32.533Z,29.14
2018-07-03T12:39:02.378Z,29.85
2018-07-03T12:41:32.478Z,29.11
2018-07-03T12:44:02.000Z,28.91
2018-07-03T12:46:31.446Z,28.82
2018-07-03T12:49:01.020Z,29.23
2018-07-03T12:51:30.540Z,29.08
2018-07-03T12:54:00.599Z,30.27
2018-07-03T12:56:30.897Z,31.27
2018-07-03T12:59:00.352Z,32.49
2018-07-03T13:01:30.021Z,31.57
2018-07-03T13:03:59.284Z,31.78
2018-07-03T13:06:28.748Z,31.52
2018-07-03T13:08:58.212Z,30.52
2018-07-03T13:11:27.656Z,30.73
2018-07-03T13:13:56.927Z,30.62
2018-07-03T13:16:26.451Z,30.25
2018-07-03T13:18:55.643Z,30.23
2018-07-03T13:21:24.962Z,30.74
2018-07-03T13:23:54.823Z,32.12
2018-07-03T13:26:26.027Z,31.88
2018-07-03T13:28:58.395Z,31.58
2018-07-03T13:31:28.958Z,31.12
2018-07-03T13:33:58.443Z,31.23
2018-07-03T13:36:27.986Z,32.94
2018-07-03T13:38:57.570Z,31.06
2018-07-03T13:41:30.035Z,31.74
2018-07-03T13:43:59.764Z,31.46
2018-07-03T13:46:30.188Z,30.22
2018-07-03T13:48:59.646Z,30.09
2018-07-03T13:51:29.866Z,30.23
2018-07-03T13:54:00.153Z,29.97
2018-07-03T13:56:31.097Z,31.18
2018-07-03T13:59:00.635Z,31.91
2018-07-03T14:01:31.113Z,30.83
2018-07-03T14:04:01.633Z,31.71
2018-07-03T14:06:31.839Z,31.95
2018-07-03T14:09:01.918Z,32.99
2018-07-03T14:11:32.054Z,31.85
2018-07-03T14:14:01.759Z,31.44
2018-07-03T14:16:31.374Z,31.70
2018-07-03T14:19:01.101Z,31.72
2018-07-03T14:21:30.752Z,32.66
2018-07-03T14:24:01.327Z,33.29
2018-07-03T14:26:31.095Z,32.90
2018-07-03T14:29:03.039Z,31.85
2018-07-03T14:31:32.589Z,31.92
2018-07-03T14:34:03.061Z,33.13
2018-07-03T14:36:33.368Z,33.38
2018-07-03T14:39:04.482Z,32.02
2018-07-03T14:41:34.373Z,32.08
2018-07-03T14:44:05.219Z,32.87
2018-07-03T14:46:34.873Z,31.99
2018-07-03T14:49:04.590Z,31.09
2018-07-03T14:51:34.497Z,30.82
2018-07-03T14:54:04.605Z,31.06
2018-07-03T14:56:34.645Z,31.55
2018-07-03T14:59:05.022Z,32.52
2018-07-03T15:01:34.562Z,32.49
2018-07-03T15:04:04.068Z,31.09
2018-07-03T15:06:33.562Z,30.43
2018-07-03T15:09:04.473Z,30.99
2018-07-03T15:11:33.876Z,31.47
2018-07-03T15:14:03.626Z,31.45
2018-07-03T15:16:33.599Z,32.47
2018-07-03T15:19:08.322Z,31.54
2018-07-03T15:21:38.349Z,31.53
2018-07-03T15:24:08.746Z,31.60
2018-07-03T15:26:40.078Z,31.87
2018-07-03T15:29:10.547Z,32.85
2018-07-03T15:31:40.184Z,32.40
2018-07-03T15:34:11.343Z,31.98
2018-07-03T15:36:41.476Z,31.26
2018-07-03T15:39:13.661Z,30.40
2018-07-03T15:41:43.077Z,30.69
2018-07-03T15:44:31.786Z,30.62
2018-07-03T15:47:01.835Z,30.97
2018-07-03T15:49:31.390Z,30.93
2018-07-03T15:52:00.953Z,31.26
2018-07-03T15:54:30.397Z,31.46
2018-07-03T15:57:00.390Z,30.64
2018-07-03T15:59:30.585Z,30.61
2018-07-03T16:02:00.467Z,31.38
2018-07-03T16:05:15.895Z,31.79
2018-07-03T16:08:07.644Z,30.76
2018-07-03T16:10:37.623Z,31.33
2018-07-03T16:13:07.149Z,30.86
2018-07-03T16:15:37.806Z,30.59
2018-07-03T16:18:07.393Z,30.32
2018-07-03T16:20:39.209Z,29.42
2018-07-03T16:23:09.350Z,29.46
2018-07-03T16:25:39.416Z,29.45
2018-07-03T16:28:09.838Z,29.43
2018-07-03T16:30:39.333Z,29.03
2018-07-03T16:33:08.899Z,29.36
2018-07-03T16:35:38.228Z,30.12
2018-07-03T16:38:07.946Z,28.82
2018-07-03T16:40:37.398Z,29.00
2018-07-03T16:43:06.947Z,27.89
2018-07-03T16:45:36.498Z,28.09
2018-07-03T16:48:06.546Z,28.74
2018-07-03T16:50:36.057Z,28.59
2018-07-03T16:53:05.517Z,28.77
2018-07-03T16:55:34.902Z,28.40
2018-07-03T16:58:04.363Z,27.85
2018-07-03T17:00:33.960Z,27.94
2018-07-03T17:03:03.807Z,28.04
2018-07-03T17:05:33.376Z,27.76
2018-07-03T17:08:02.981Z,28.35
2018-07-03T17:10:32.549Z,28.52
2018-07-03T17:13:01.961Z,28.01
2018-07-03T17:15:31.538Z,27.70
2018-07-03T17:18:01.004Z,27.35
2018-07-03T17:20:30.341Z,27.15
2018-07-03T17:22:59.961Z,26.91
2018-07-03T17:25:29.390Z,26.16
2018-07-03T17:27:58.903Z,26.03
2018-07-03T17:30:28.489Z,25.08
2018-07-03T17:32:58.107Z,24.99
2018-07-03T17:35:27.662Z,24.55
2018-07-03T17:37:57.109Z,24.55
2018-07-03T17:40:43.724Z,24.31
2018-07-03T17:45:27.645Z,24.01
2018-07-03T17:47:57.181Z,23.45
2018-07-03T17:50:27.021Z,23.67
2018-07-03T17:52:56.469Z,23.55
2018-07-03T17:55:26.223Z,23.28
2018-07-03T17:57:56.091Z,23.10
2018-07-03T18:00:25.666Z,23.20
2018-07-03T18:02:54.975Z,22.99
2018-07-03T18:05:25.179Z,23.00
2018-07-03T18:07:54.937Z,23.26
2018-07-03T18:10:24.449Z,23.21
2018-07-03T18:12:54.511Z,23.28
2018-07-03T18:15:23.996Z,23.51
2018-07-03T18:17:53.587Z,23.55
2018-07-03T18:20:23.080Z,23.38
2018-07-03T18:22:52.861Z,23.16
2018-07-03T18:25:22.445Z,22.97
2018-07-03T18:27:51.923Z,22.74
2018-07-03T18:30:21.555Z,22.47
2018-07-03T18:32:51.186Z,22.06
2018-07-03T18:35:20.606Z,21.87
2018-07-03T18:37:49.887Z,21.58
2018-07-03T18:40:19.380Z,21.52
2018-07-03T18:42:48.985Z,21.29
2018-07-03T18:45:18.997Z,21.43
2018-07-03T18:47:48.455Z,21.20
2018-07-03T18:50:17.620Z,21.18
2018-07-03T18:52:47.192Z,21.08
2018-07-03T18:55:16.710Z,20.96
2018-07-03T18:57:46.285Z,20.86
2018-07-03T19:00:16.964Z,20.64
2018-07-03T19:02:46.499Z,20.39
2018-07-03T19:05:15.954Z,20.54
2018-07-03T19:07:45.814Z,20.39
2018-07-03T19:10:15.323Z,20.37
2018-07-03T19:12:45.513Z,20.26
2018-07-03T19:15:15.126Z,20.05
2018-07-03T19:17:44.645Z,19.99
2018-07-03T19:20:14.474Z,19.82
2018-07-03T19:22:43.959Z,19.84
2018-07-03T19:25:13.477Z,19.64
2018-07-03T19:27:43.105Z,19.54
2018-07-03T19:30:12.755Z,19.52
2018-07-03T19:32:42.427Z,19.35
2018-07-03T19:35:12.312Z,19.24
2018-07-03T19:37:42.099Z,19.10
2018-07-03T19:40:12.589Z,19.13
2018-07-03T19:42:57.285Z,19.03
2018-07-03T19:45:26.802Z,18.85
2018-07-03T19:47:56.400Z,18.83
2018-07-03T19:50:27.964Z,18.71
2018-07-03T19:52:57.117Z,18.67
2018-07-03T19:55:26.482Z,18.50
2018-07-03T19:57:56.116Z,18.41
2018-07-03T20:00:25.992Z,18.33
2018-07-03T20:02:56.136Z,18.29
2018-07-03T20:05:25.863Z,18.14
2018-07-03T20:07:55.537Z,18.12
2018-07-03T20:10:25.023Z,17.97
2018-07-03T20:12:55.218Z,17.95
2018-07-03T20:15:25.408Z,17.92
2018-07-03T20:17:55.069Z,17.72
2018-07-03T20:20:26.134Z,17.73
2018-07-03T20:22:56.937Z,17.68
2018-07-03T20:25:26.374Z,17.66
2018-07-03T20:27:55.862Z,17.56
2018-07-03T20:30:25.462Z,17.53
2018-07-03T20:32:54.927Z,17.50
2018-07-03T20:35:24.545Z,17.39
2018-07-03T20:37:58.581Z,17.36
2018-07-03T20:41:01.988Z,17.24
2018-07-03T20:43:34.642Z,17.11
2018-07-03T20:46:05.172Z,17.16
2018-07-03T20:48:35.583Z,17.07
2018-07-03T20:51:08.010Z,17.04
2018-07-03T20:53:38.087Z,16.92
2018-07-03T20:56:08.464Z,16.85
2018-07-03T20:58:38.885Z,16.76
2018-07-03T21:01:09.327Z,16.73
2018-07-03T21:03:38.791Z,16.68
2018-07-03T21:06:10.147Z,16.55
2018-07-03T21:08:40.469Z,16.51
2018-07-03T21:11:10.639Z,16.49
2018-07-03T21:13:40.126Z,16.45
2018-07-03T21:16:09.640Z,16.36
2018-07-03T21:18:39.763Z,16.31
2018-07-03T21:21:09.241Z,16.32
2018-07-03T21:23:38.631Z,16.30
2018-07-03T21:26:09.009Z,16.28
2018-07-03T21:28:39.092Z,16.24
2018-07-03T21:31:09.790Z,16.20
2018-07-03T21:33:39.962Z,16.06
2018-07-03T21:36:09.438Z,16.00
2018-07-03T21:38:39.211Z,16.00
2018-07-03T21:41:08.699Z,15.91
2018-07-03T21:43:38.578Z,15.83
2018-07-03T21:46:09.615Z,15.86
2018-07-03T21:48:39.458Z,15.77
2018-07-03T21:51:09.625Z,15.60
2018-07-03T21:53:39.780Z,15.65
2018-07-03T21:56:09.029Z,15.62
2018-07-03T21:58:39.328Z,15.58
2018-07-03T22:01:08.893Z,15.48
2018-07-03T22:03:39.015Z,15.52
2018-07-03T22:06:09.309Z,15.54
2018-07-03T22:08:39.370Z,15.51
2018-07-03T22:11:09.960Z,15.44
2018-07-03T22:13:41.327Z,15.40
2018-07-03T22:16:11.722Z,15.25
2018-07-03T22:18:41.303Z,15.24
2018-07-03T22:21:11.259Z,15.17
2018-07-03T22:23:40.713Z,15.15
2018-07-03T22:26:09.948Z,15.13
2018-07-03T22:28:40.381Z,15.10
2018-07-03T22:31:10.170Z,15.07
2018-07-03T22:33:39.633Z,15.02
2018-07-03T22:36:09.164Z,14.96
2018-07-03T22:38:38.765Z,14.96
2018-07-03T22:41:09.191Z,14.90
2018-07-03T22:43:39.089Z,14.94
2018-07-03T22:46:08.565Z,14.90
2018-07-03T22:48:38.045Z,14.79
2018-07-03T22:51:10.253Z,14.80
2018-07-03T22:53:41.404Z,14.77
2018-07-03T22:56:12.322Z,14.80
2018-07-03T22:58:41.761Z,14.75
2018-07-03T23:01:15.595Z,14.74
2018-07-03T23:03:45.318Z,14.72
2018-07-03T23:06:14.852Z,14.71
2018-07-03T23:08:44.670Z,14.70
2018-07-03T23:11:14.946Z,14.68
2018-07-03T23:13:45.407Z,14.69
2018-07-03T23:16:14.878Z,14.73
2018-07-03T23:18:44.358Z,14.58
2018-07-03T23:21:13.804Z,14.62
2018-07-03T23:23:44.497Z,14.64
2018-07-03T23:26:14.245Z,14.58
2018-07-03T23:28:43.892Z,14.54
2018-07-03T23:31:13.474Z,14.48
2018-07-03T23:33:44.122Z,14.52
2018-07-03T23:36:13.632Z,14.52
2018-07-03T23:38:43.485Z,14.49
2018-07-03T23:41:13.172Z,14.50
2018-07-03T23:43:42.658Z,14.37
2018-07-03T23:46:10.421Z,14.42
2018-07-03T23:48:56.870Z,14.38
2018-07-03T23:51:43.466Z,14.32
2018-07-03T23:54:31.284Z,14.27
2018-07-03T23:57:17.752Z,14.17
2018-07-03T23:59:58.293Z,14.22
